WXM80 ListenWXM80 Stop

You find our weather info also at:

UK Metoffice

WeatherCloud

Weather Underground

Northeastern Weather Network

AWEKAS

Citizen Weather Observer Program (CWOP)

HAMweather, WeatherForYou, PWS Weather


Weather Underground History page Text

Daily Summary for December 2, 2016 Units:  English    Metric   Both
« Previous Day
Next Day »
Daily Weekly Monthly Yearly Custom
  High: Low: Average:
Temperature: 51.1 °F 40.4 °F 45.5 °F
Dew Point: 37.3 °F 32.1 °F 34 °F
Humidity: 74 % 54 % 64 %
Wind Speed: 13.0 mph 0.7 mph 6.1 mph
Wind Gust: 24.0 mph - -
Wind:- - West
Pressure: 29.88 in 29.77 in -
Precipitation: 0.00 in    
Historical Graphs
 
 
Tabular Data for December 2, 2016
Time Temperature Dew Point Pressure Wind Wind Speed Wind Gust Humidity Rainfall Rate (Hourly)
00:01 44.0 °F 33.4 °F 29.78 in SW 8.7 mph 17.3 mph 66 % 0.00 in
00:06 43.9 °F 32.9 °F 29.77 in WSW 7.7 mph 12.0 mph 65 % 0.00 in
00:12 43.8 °F 33.2 °F 29.78 in WSW 5.0 mph 9.2 mph 66 % 0.00 in
00:17 43.8 °F 33.6 °F 29.78 in WNW 5.6 mph 11.5 mph 67 % 0.00 in
00:22 43.7 °F 33.5 °F 29.78 in West 0.7 mph 6.9 mph 67 % 0.00 in
00:27 43.6 °F 33.4 °F 29.79 in SSW 7.5 mph 11.5 mph 67 % 0.00 in
00:32 43.5 °F 33.6 °F 29.79 in SW 6.3 mph 12.7 mph 68 % 0.00 in
00:37 43.4 °F 33.5 °F 29.79 in West 7.3 mph 12.7 mph 68 % 0.00 in
00:42 43.4 °F 33.2 °F 29.79 in SSW 5.1 mph 13.8 mph 67 % 0.00 in
00:47 43.3 °F 33.4 °F 29.79 in WSW 8.1 mph 13.0 mph 68 % 0.00 in
00:52 43.3 °F 33.1 °F 29.80 in West 8.2 mph 19.6 mph 67 % 0.00 in
00:57 43.3 °F 33.1 °F 29.80 in West 6.9 mph 12.7 mph 67 % 0.00 in
01:03 43.3 °F 33.1 °F 29.80 in West 6.4 mph 13.8 mph 67 % 0.00 in
01:08 43.3 °F 33.1 °F 29.80 in WSW 7.0 mph 12.0 mph 67 % 0.00 in
01:13 43.2 °F 33.0 °F 29.80 in SW 6.0 mph 13.8 mph 67 % 0.00 in
01:18 43.2 °F 32.6 °F 29.80 in SSW 6.4 mph 11.5 mph 66 % 0.00 in
01:23 43.1 °F 32.5 °F 29.80 in SSW 5.3 mph 9.2 mph 66 % 0.00 in
01:28 43.0 °F 32.4 °F 29.80 in WSW 6.7 mph 10.4 mph 66 % 0.00 in
01:33 42.9 °F 32.3 °F 29.80 in WSW 4.5 mph 11.5 mph 66 % 0.00 in
01:38 42.8 °F 32.2 °F 29.81 in West 7.8 mph 11.5 mph 66 % 0.00 in
01:43 42.7 °F 32.5 °F 29.81 in WSW 4.0 mph 9.2 mph 67 % 0.00 in
01:48 42.6 °F 32.4 °F 29.81 in West 5.6 mph 11.5 mph 67 % 0.00 in
01:54 42.5 °F 32.3 °F 29.81 in SW 4.4 mph 12.7 mph 67 % 0.00 in
01:59 42.4 °F 32.2 °F 29.81 in SW 3.7 mph 8.1 mph 67 % 0.00 in
02:04 42.3 °F 32.1 °F 29.81 in West 5.6 mph 8.1 mph 67 % 0.00 in
02:09 42.2 °F 32.4 °F 29.81 in WSW 3.9 mph 6.9 mph 68 % 0.00 in
02:14 42.2 °F 32.4 °F 29.82 in SW 5.8 mph 8.1 mph 68 % 0.00 in
02:19 42.1 °F 32.3 °F 29.82 in WSW 6.1 mph 9.2 mph 68 % 0.00 in
02:24 42.0 °F 32.2 °F 29.82 in WSW 4.5 mph 11.5 mph 68 % 0.00 in
02:29 42.0 °F 32.6 °F 29.82 in SW 1.5 mph 4.0 mph 69 % 0.00 in
02:34 41.9 °F 32.5 °F 29.82 in WSW 5.7 mph 12.0 mph 69 % 0.00 in
02:39 41.8 °F 32.4 °F 29.82 in South 6.4 mph 11.5 mph 69 % 0.00 in
02:45 41.8 °F 32.4 °F 29.83 in WNW 3.5 mph 11.5 mph 69 % 0.00 in
02:50 41.8 °F 32.4 °F 29.83 in WNW 7.2 mph 15.0 mph 69 % 0.00 in
02:55 41.7 °F 32.3 °F 29.83 in WSW 5.0 mph 12.0 mph 69 % 0.00 in
03:00 41.7 °F 32.6 °F 29.83 in West 4.7 mph 9.2 mph 70 % 0.00 in
03:05 41.7 °F 32.6 °F 29.83 in WSW 7.0 mph 14.0 mph 70 % 0.00 in
03:10 41.8 °F 32.7 °F 29.83 in WSW 9.0 mph 17.0 mph 70 % 0.00 in
03:15 41.8 °F 32.7 °F 29.83 in WSW 3.0 mph 10.0 mph 70 % 0.00 in
03:20 41.8 °F 32.8 °F 29.83 in West 6.0 mph 14.0 mph 70 % 0.00 in
03:25 41.9 °F 32.8 °F 29.83 in West 10.0 mph 15.0 mph 70 % 0.00 in
03:30 41.9 °F 32.5 °F 29.83 in West 10.0 mph 16.0 mph 69 % 0.00 in
03:35 41.9 °F 32.5 °F 29.83 in West 9.0 mph 16.0 mph 69 % 0.00 in
03:40 41.9 °F 32.5 °F 29.82 in West 6.0 mph 13.0 mph 69 % 0.00 in
03:45 41.9 °F 32.5 °F 29.83 in West 6.0 mph 14.0 mph 69 % 0.00 in
03:50 41.9 °F 32.8 °F 29.83 in West 5.0 mph 12.0 mph 70 % 0.00 in
03:55 41.9 °F 32.8 °F 29.83 in WSW 6.0 mph 9.0 mph 70 % 0.00 in
04:00 41.9 °F 32.8 °F 29.82 in SW 5.7 mph 13.8 mph 70 % 0.00 in
04:05 41.9 °F 32.8 °F 29.83 in WNW 5.4 mph 9.2 mph 70 % 0.00 in
04:10 41.9 °F 33.2 °F 29.83 in SW 4.1 mph 9.2 mph 71 % 0.00 in
04:15 41.9 °F 33.2 °F 29.83 in WSW 5.0 mph 11.5 mph 71 % 0.00 in
04:20 41.9 °F 33.2 °F 29.82 in West 4.6 mph 8.1 mph 71 % 0.00 in
04:25 41.8 °F 33.1 °F 29.82 in WSW 6.6 mph 12.7 mph 71 % 0.00 in
04:30 41.8 °F 33.1 °F 29.82 in West 5.3 mph 12.0 mph 71 % 0.00 in
04:35 41.8 °F 33.1 °F 29.83 in West 4.0 mph 10.4 mph 71 % 0.00 in
04:41 41.8 °F 33.1 °F 29.83 in West 4.5 mph 11.5 mph 71 % 0.00 in
04:46 41.7 °F 33.3 °F 29.83 in WNW 3.9 mph 7.0 mph 72 % 0.00 in
04:51 41.7 °F 33.3 °F 29.83 in WNW 4.1 mph 6.9 mph 72 % 0.00 in
04:56 41.7 °F 33.3 °F 29.83 in WSW 4.1 mph 8.1 mph 72 % 0.00 in
05:01 41.6 °F 33.6 °F 29.83 in West 8.7 mph 15.0 mph 73 % 0.00 in
05:06 41.6 °F 33.6 °F 29.83 in WSW 5.2 mph 9.0 mph 73 % 0.00 in
05:11 41.6 °F 33.6 °F 29.83 in WSW 7.5 mph 10.4 mph 73 % 0.00 in
05:16 41.6 °F 33.2 °F 29.83 in WSW 10.4 mph 17.3 mph 72 % 0.00 in
05:21 41.6 °F 33.2 °F 29.84 in WSW 5.3 mph 12.0 mph 72 % 0.00 in
05:26 41.7 °F 33.3 °F 29.84 in WSW 5.7 mph 10.4 mph 72 % 0.00 in
05:32 41.6 °F 33.2 °F 29.84 in West 7.5 mph 9.2 mph 72 % 0.00 in
05:37 41.6 °F 33.2 °F 29.84 in WSW 5.3 mph 11.0 mph 72 % 0.00 in
05:42 41.6 °F 33.2 °F 29.84 in South 5.5 mph 9.2 mph 72 % 0.00 in
05:47 41.5 °F 33.1 °F 29.84 in SW 5.8 mph 11.5 mph 72 % 0.00 in
05:52 41.5 °F 33.5 °F 29.84 in WSW 3.0 mph 8.1 mph 73 % 0.00 in
05:57 41.4 °F 33.4 °F 29.84 in West 3.2 mph 3.5 mph 73 % 0.00 in
06:02 41.4 °F 33.4 °F 29.84 in WSW 7.2 mph 11.5 mph 73 % 0.00 in
06:07 41.3 °F 33.3 °F 29.84 in West 2.4 mph 3.5 mph 73 % 0.00 in
06:12 41.3 °F 33.3 °F 29.84 in WSW 6.0 mph 8.1 mph 73 % 0.00 in
06:17 41.2 °F 33.2 °F 29.84 in WSW 2.3 mph 11.5 mph 73 % 0.00 in
06:23 41.2 °F 33.2 °F 29.84 in West 4.7 mph 12.7 mph 73 % 0.00 in
06:28 41.1 °F 33.1 °F 29.85 in SSW 5.0 mph 6.9 mph 73 % 0.00 in
06:33 41.1 °F 33.1 °F 29.85 in West 5.0 mph 10.4 mph 73 % 0.00 in
06:38 41.0 °F 33.0 °F 29.85 in WSW 2.3 mph 8.1 mph 73 % 0.00 in
06:43 41.0 °F 33.0 °F 29.85 in South 4.1 mph 9.2 mph 73 % 0.00 in
06:48 40.9 °F 32.9 °F 29.85 in SSW 4.1 mph 6.9 mph 73 % 0.00 in
06:53 40.9 °F 32.9 °F 29.85 in West 4.0 mph 9.2 mph 73 % 0.00 in
06:58 40.7 °F 32.7 °F 29.86 in WSW 5.1 mph 8.1 mph 73 % 0.00 in
07:03 40.7 °F 32.7 °F 29.85 in WSW 4.4 mph 5.8 mph 73 % 0.00 in
07:08 40.6 °F 33.0 °F 29.86 in SW 4.4 mph 8.1 mph 74 % 0.00 in
07:14 40.5 °F 32.9 °F 29.86 in SW 4.3 mph 8.0 mph 74 % 0.00 in
07:19 40.5 °F 32.9 °F 29.86 in WSW 3.1 mph 4.6 mph 74 % 0.00 in
07:24 40.5 °F 32.9 °F 29.86 in SW 4.5 mph 6.0 mph 74 % 0.00 in
07:29 40.4 °F 32.8 °F 29.86 in SW 4.0 mph 6.9 mph 74 % 0.00 in
07:34 40.4 °F 32.8 °F 29.86 in WSW 4.5 mph 10.0 mph 74 % 0.00 in
07:39 40.5 °F 32.9 °F 29.86 in WSW 2.5 mph 4.0 mph 74 % 0.00 in
07:44 40.6 °F 33.0 °F 29.86 in SW 6.3 mph 10.4 mph 74 % 0.00 in
07:49 40.7 °F 33.1 °F 29.86 in WSW 5.0 mph 6.9 mph 74 % 0.00 in
07:54 40.9 °F 33.2 °F 29.86 in SW 4.0 mph 10.4 mph 74 % 0.00 in
07:59 41.1 °F 33.4 °F 29.86 in WSW 5.9 mph 13.0 mph 74 % 0.00 in
08:05 41.4 °F 33.4 °F 29.86 in SW 3.7 mph 11.0 mph 73 % 0.00 in
08:10 41.6 °F 33.6 °F 29.87 in West 4.7 mph 5.0 mph 73 % 0.00 in
08:15 41.8 °F 33.8 °F 29.87 in SSW 5.9 mph 10.4 mph 73 % 0.00 in
08:20 42.0 °F 34.0 °F 29.86 in SW 6.3 mph 11.5 mph 73 % 0.00 in
08:25 42.3 °F 33.9 °F 29.87 in WSW 5.4 mph 11.0 mph 72 % 0.00 in
08:30 42.5 °F 34.1 °F 29.86 in WSW 5.9 mph 11.5 mph 72 % 0.00 in
08:35 42.8 °F 34.4 °F 29.86 in SW 9.5 mph 17.3 mph 72 % 0.00 in
08:40 43.0 °F 34.2 °F 29.86 in SW 8.5 mph 12.7 mph 71 % 0.00 in
08:45 43.3 °F 34.5 °F 29.86 in SW 5.0 mph 9.2 mph 71 % 0.00 in
08:50 43.4 °F 34.6 °F 29.86 in SW 7.4 mph 16.1 mph 71 % 0.00 in
08:56 43.6 °F 34.5 °F 29.86 in SW 7.9 mph 12.7 mph 70 % 0.00 in
09:01 43.7 °F 34.6 °F 29.87 in West 7.5 mph 12.7 mph 70 % 0.00 in
09:06 43.8 °F 34.6 °F 29.87 in West 5.3 mph 12.7 mph 70 % 0.00 in
09:11 44.0 °F 34.8 °F 29.87 in WSW 6.3 mph 11.5 mph 70 % 0.00 in
09:16 44.1 °F 34.9 °F 29.87 in SW 11.7 mph 19.6 mph 70 % 0.00 in
09:23 44.4 °F 35.2 °F 29.87 in West 6.5 mph 12.7 mph 70 % 0.00 in
09:29 44.6 °F 35.1 °F 29.87 in SW 9.5 mph 16.1 mph 69 % 0.00 in
09:35 44.7 °F 35.1 °F 29.88 in SSW 6.8 mph 16.1 mph 69 % 0.00 in
09:36 44.7 °F 35.1 °F 29.88 in SSW 6.5 mph 10.4 mph 69 % 0.00 in
09:37 44.8 °F 35.2 °F 29.87 in SW 4.5 mph 12.0 mph 69 % 0.00 in
09:39 44.9 °F 35.0 °F 29.88 in WSW 7.3 mph 11.5 mph 68 % 0.00 in
09:41 45.0 °F 35.1 °F 29.87 in WSW 8.5 mph 15.0 mph 68 % 0.00 in
09:45 45.2 °F 35.3 °F 29.87 in SW 5.4 mph 14.0 mph 68 % 0.00 in
09:46 45.2 °F 35.3 °F 29.88 in SW 5.9 mph 13.8 mph 68 % 0.00 in
09:56 45.5 °F 35.5 °F 29.88 in WSW 4.2 mph 6.9 mph 68 % 0.00 in
10:01 45.7 °F 35.7 °F 29.88 in WSW 9.1 mph 11.5 mph 68 % 0.00 in
10:06 46.0 °F 36.0 °F 29.88 in WSW 4.3 mph 6.9 mph 68 % 0.00 in
10:11 46.1 °F 35.7 °F 29.88 in West 5.3 mph 13.8 mph 67 % 0.00 in
10:16 46.3 °F 35.9 °F 29.88 in SW 4.5 mph 9.2 mph 67 % 0.00 in
10:22 46.4 °F 36.0 °F 29.87 in West 6.2 mph 9.0 mph 67 % 0.00 in
10:27 46.4 °F 35.7 °F 29.87 in WSW 4.0 mph 11.5 mph 66 % 0.00 in
10:32 46.4 °F 35.7 °F 29.86 in SW 9.3 mph 15.0 mph 66 % 0.00 in
10:37 46.4 °F 36.0 °F 29.86 in WNW 6.6 mph 12.7 mph 67 % 0.00 in
10:42 46.5 °F 36.1 °F 29.86 in WNW 7.3 mph 16.1 mph 67 % 0.00 in
10:47 46.5 °F 36.1 °F 29.86 in SW 5.5 mph 8.1 mph 67 % 0.00 in
10:52 46.5 °F 35.7 °F 29.86 in SW 6.5 mph 10.4 mph 66 % 0.00 in
10:57 46.4 °F 35.7 °F 29.85 in South 4.7 mph 7.0 mph 66 % 0.00 in
11:02 46.4 °F 36.0 °F 29.85 in WNW 3.5 mph 10.4 mph 67 % 0.00 in
11:07 46.5 °F 36.1 °F 29.85 in WSW 6.0 mph 10.4 mph 67 % 0.00 in
11:13 46.6 °F 36.2 °F 29.85 in SW 6.7 mph 13.8 mph 67 % 0.00 in
11:18 46.8 °F 36.4 °F 29.85 in WNW 4.8 mph 6.0 mph 67 % 0.00 in
11:23 46.9 °F 36.5 °F 29.84 in West 7.6 mph 11.5 mph 67 % 0.00 in
11:28 47.1 °F 36.7 °F 29.84 in WSW 5.4 mph 8.1 mph 67 % 0.00 in
11:33 47.3 °F 36.9 °F 29.84 in WNW 5.7 mph 11.5 mph 67 % 0.00 in
11:38 47.5 °F 36.7 °F 29.84 in WSW 5.7 mph 8.1 mph 66 % 0.00 in
11:43 47.6 °F 37.2 °F 29.84 in WNW 3.1 mph 10.4 mph 67 % 0.00 in
11:48 47.7 °F 36.5 °F 29.84 in WSW 8.6 mph 11.5 mph 65 % 0.00 in
11:53 47.9 °F 36.7 °F 29.83 in West 3.7 mph 6.9 mph 65 % 0.00 in
11:58 48.1 °F 37.3 °F 29.83 in WSW 5.9 mph 13.0 mph 66 % 0.00 in
12:04 48.4 °F 37.2 °F 29.83 in West 6.7 mph 10.4 mph 65 % 0.00 in
12:09 48.8 °F 37.2 °F 29.83 in NW 5.3 mph 10.4 mph 64 % 0.00 in
12:14 49.2 °F 37.1 °F 29.82 in SW 8.4 mph 13.8 mph 63 % 0.00 in
12:19 49.7 °F 36.4 °F 29.82 in West 7.6 mph 16.1 mph 60 % 0.00 in
12:24 49.9 °F 36.6 °F 29.82 in WNW 8.2 mph 16.1 mph 60 % 0.00 in
12:29 50.1 °F 35.9 °F 29.82 in WNW 7.1 mph 14.0 mph 58 % 0.00 in
12:34 50.2 °F 36.0 °F 29.82 in WSW 4.2 mph 10.0 mph 58 % 0.00 in
12:39 50.3 °F 36.1 °F 29.82 in SW 9.7 mph 13.0 mph 58 % 0.00 in
12:44 50.5 °F 36.3 °F 29.81 in West 4.8 mph 7.0 mph 58 % 0.00 in
12:49 50.6 °F 35.9 °F 29.81 in NW 8.4 mph 12.7 mph 57 % 0.00 in
12:55 50.7 °F 36.0 °F 29.81 in WSW 5.2 mph 11.0 mph 57 % 0.00 in
13:00 50.8 °F 36.1 °F 29.81 in West 9.6 mph 16.0 mph 57 % 0.00 in
13:05 50.9 °F 35.7 °F 29.81 in NW 4.9 mph 11.5 mph 56 % 0.00 in
13:10 50.9 °F 36.2 °F 29.81 in West 6.0 mph 13.0 mph 57 % 0.00 in
13:15 50.9 °F 36.2 °F 29.81 in West 3.0 mph 12.0 mph 57 % 0.00 in
13:20 51.0 °F 36.7 °F 29.81 in West 3.0 mph 9.0 mph 58 % 0.00 in
13:25 51.1 °F 36.8 °F 29.81 in NW 6.5 mph 15.0 mph 58 % 0.00 in
13:30 51.1 °F 36.4 °F 29.81 in West 6.0 mph 9.0 mph 57 % 0.00 in
13:35 51.1 °F 36.8 °F 29.81 in West 5.0 mph 12.0 mph 58 % 0.00 in
13:40 51.0 °F 36.3 °F 29.81 in WSW 4.7 mph 8.1 mph 57 % 0.00 in
13:45 50.8 °F 36.1 °F 29.81 in West 5.0 mph 12.0 mph 57 % 0.00 in
13:50 50.7 °F 36.5 °F 29.81 in West 2.0 mph 7.0 mph 58 % 0.00 in
13:55 50.6 °F 36.4 °F 29.81 in WNW 6.0 mph 12.0 mph 58 % 0.00 in
14:00 50.5 °F 35.8 °F 29.81 in WNW 4.6 mph 6.0 mph 57 % 0.00 in
14:05 50.4 °F 36.2 °F 29.81 in West 7.2 mph 11.5 mph 58 % 0.00 in
14:10 50.3 °F 35.6 °F 29.81 in NW 3.6 mph 7.0 mph 57 % 0.00 in
14:15 50.2 °F 35.5 °F 29.81 in West 4.5 mph 11.5 mph 57 % 0.00 in
14:21 50.1 °F 35.4 °F 29.81 in NW 4.9 mph 9.0 mph 57 % 0.00 in
14:26 50.0 °F 35.8 °F 29.81 in NW 4.2 mph 10.0 mph 58 % 0.00 in
14:31 49.9 °F 34.8 °F 29.81 in WNW 3.9 mph 10.4 mph 56 % 0.00 in
14:36 49.9 °F 34.8 °F 29.81 in NW 6.1 mph 13.8 mph 56 % 0.00 in
14:41 49.9 °F 35.3 °F 29.81 in West 5.8 mph 11.5 mph 57 % 0.00 in
14:46 49.9 °F 34.4 °F 29.81 in NW 9.6 mph 15.0 mph 55 % 0.00 in
14:51 50.0 °F 34.5 °F 29.82 in West 4.9 mph 9.2 mph 55 % 0.00 in
14:56 50.0 °F 34.5 °F 29.82 in West 2.5 mph 5.8 mph 55 % 0.00 in
15:01 50.1 °F 34.1 °F 29.82 in NW 5.1 mph 11.5 mph 54 % 0.00 in
15:06 50.1 °F 34.1 °F 29.82 in WNW 8.2 mph 12.0 mph 54 % 0.00 in
15:11 50.1 °F 34.1 °F 29.82 in West 8.0 mph 12.7 mph 54 % 0.00 in
15:17 50.1 °F 34.5 °F 29.82 in NW 1.6 mph 6.9 mph 55 % 0.00 in
15:22 50.0 °F 34.9 °F 29.82 in WNW 1.4 mph 6.9 mph 56 % 0.00 in
15:27 49.9 °F 34.8 °F 29.82 in WNW 6.5 mph 11.5 mph 56 % 0.00 in
15:32 49.9 °F 34.4 °F 29.82 in WNW 8.3 mph 13.0 mph 55 % 0.00 in
15:37 49.8 °F 34.3 °F 29.82 in NW 7.6 mph 11.0 mph 55 % 0.00 in
15:42 49.7 °F 34.2 °F 29.82 in WSW 5.8 mph 10.4 mph 55 % 0.00 in
15:47 49.6 °F 34.5 °F 29.82 in WNW 5.5 mph 11.5 mph 56 % 0.00 in
15:52 49.5 °F 34.4 °F 29.82 in SSW 4.5 mph 8.1 mph 56 % 0.00 in
15:57 49.4 °F 33.9 °F 29.82 in West 6.8 mph 12.7 mph 55 % 0.00 in
16:03 49.4 °F 34.3 °F 29.82 in WNW 7.8 mph 10.4 mph 56 % 0.00 in
16:08 49.3 °F 34.7 °F 29.82 in WNW 3.9 mph 9.2 mph 57 % 0.00 in
16:13 49.2 °F 34.6 °F 29.82 in West 3.7 mph 10.4 mph 57 % 0.00 in
16:18 49.1 °F 34.5 °F 29.82 in WSW 1.9 mph 8.1 mph 57 % 0.00 in
16:23 48.9 °F 35.2 °F 29.82 in SSW 4.1 mph 13.0 mph 59 % 0.00 in
16:28 48.8 °F 35.1 °F 29.82 in West 3.1 mph 12.0 mph 59 % 0.00 in
16:33 48.7 °F 35.0 °F 29.82 in SW 3.7 mph 7.0 mph 59 % 0.00 in
16:38 48.7 °F 35.4 °F 29.82 in West 5.6 mph 10.4 mph 60 % 0.00 in
16:43 48.6 °F 35.7 °F 29.83 in West 3.5 mph 7.0 mph 61 % 0.00 in
16:48 48.6 °F 35.3 °F 29.83 in WNW 3.5 mph 5.8 mph 60 % 0.00 in
16:53 48.6 °F 34.0 °F 29.83 in West 7.9 mph 16.1 mph 57 % 0.00 in
16:58 48.7 °F 34.1 °F 29.83 in WNW 6.9 mph 12.7 mph 57 % 0.00 in
17:04 48.7 °F 33.7 °F 29.83 in SW 8.1 mph 13.8 mph 56 % 0.00 in
17:09 48.7 °F 33.7 °F 29.83 in SW 7.5 mph 11.5 mph 56 % 0.00 in
17:14 48.7 °F 33.7 °F 29.83 in South 6.2 mph 8.1 mph 56 % 0.00 in
17:19 48.7 °F 33.2 °F 29.83 in WSW 6.0 mph 13.8 mph 55 % 0.00 in
17:24 48.7 °F 33.2 °F 29.83 in WNW 8.6 mph 15.0 mph 55 % 0.00 in
17:29 48.6 °F 32.7 °F 29.83 in WSW 10.3 mph 16.1 mph 54 % 0.00 in
17:34 48.5 °F 33.1 °F 29.83 in WNW 6.1 mph 11.5 mph 55 % 0.00 in
17:39 48.5 °F 33.1 °F 29.83 in WSW 6.8 mph 11.5 mph 55 % 0.00 in
17:44 48.4 °F 33.4 °F 29.83 in WSW 5.8 mph 15.0 mph 56 % 0.00 in
17:49 48.3 °F 33.3 °F 29.83 in WSW 5.7 mph 13.0 mph 56 % 0.00 in
17:55 48.2 °F 33.2 °F 29.83 in WSW 4.8 mph 13.0 mph 56 % 0.00 in
18:00 48.2 °F 33.7 °F 29.83 in West 4.9 mph 11.0 mph 57 % 0.00 in
18:05 48.2 °F 33.7 °F 29.83 in West 3.0 mph 16.0 mph 57 % 0.00 in
18:10 48.2 °F 33.7 °F 29.83 in WNW 5.0 mph 13.0 mph 57 % 0.00 in
18:15 48.2 °F 33.7 °F 29.83 in WSW 5.3 mph 9.2 mph 57 % 0.00 in
18:20 48.1 °F 33.1 °F 29.83 in West 8.0 mph 16.0 mph 56 % 0.00 in
18:25 48.1 °F 33.1 °F 29.83 in West 8.0 mph 15.0 mph 56 % 0.00 in
18:30 48.1 °F 33.1 °F 29.84 in West 3.8 mph 8.1 mph 56 % 0.00 in
18:35 48.1 °F 33.6 °F 29.84 in WSW 4.4 mph 10.4 mph 57 % 0.00 in
18:40 48.0 °F 33.9 °F 29.84 in West 6.0 mph 12.0 mph 58 % 0.00 in
18:45 48.0 °F 33.5 °F 29.84 in West 10.6 mph 16.1 mph 57 % 0.00 in
18:50 48.0 °F 33.9 °F 29.84 in West 7.0 mph 18.0 mph 58 % 0.00 in
18:55 48.1 °F 33.6 °F 29.84 in West 5.0 mph 18.0 mph 57 % 0.00 in
19:00 48.1 °F 33.6 °F 29.84 in WNW 8.2 mph 11.5 mph 57 % 0.00 in
19:05 48.1 °F 33.5 °F 29.84 in West 7.0 mph 15.0 mph 57 % 0.00 in
19:10 48.0 °F 33.0 °F 29.84 in West 8.0 mph 17.0 mph 56 % 0.00 in
19:15 48.0 °F 33.5 °F 29.84 in WSW 8.0 mph 15.0 mph 57 % 0.00 in
19:20 48.0 °F 33.5 °F 29.84 in WSW 6.0 mph 12.0 mph 57 % 0.00 in
19:25 48.0 °F 33.5 °F 29.84 in West 6.0 mph 17.0 mph 57 % 0.00 in
19:30 47.9 °F 33.4 °F 29.84 in NW 3.4 mph 11.5 mph 57 % 0.00 in
19:35 47.9 °F 33.4 °F 29.84 in West 7.0 mph 14.0 mph 57 % 0.00 in
19:40 47.9 °F 33.8 °F 29.84 in West 5.0 mph 12.0 mph 58 % 0.00 in
19:45 47.9 °F 33.8 °F 29.83 in West 7.0 mph 14.0 mph 58 % 0.00 in
19:50 47.8 °F 33.7 °F 29.83 in West 5.0 mph 12.0 mph 58 % 0.00 in
19:55 47.7 °F 33.7 °F 29.83 in West 7.0 mph 13.0 mph 58 % 0.00 in
20:00 47.6 °F 33.1 °F 29.83 in WSW 6.4 mph 15.0 mph 57 % 0.00 in
20:05 47.6 °F 33.5 °F 29.83 in WSW 5.0 mph 15.0 mph 58 % 0.00 in
20:10 47.4 °F 33.8 °F 29.83 in West 7.0 mph 14.0 mph 59 % 0.00 in
20:15 47.3 °F 33.3 °F 29.83 in West 9.0 mph 17.0 mph 58 % 0.00 in
20:20 47.2 °F 33.2 °F 29.83 in West 8.0 mph 14.0 mph 58 % 0.00 in
20:25 47.2 °F 33.6 °F 29.83 in West 7.0 mph 15.0 mph 59 % 0.00 in
20:30 47.2 °F 33.6 °F 29.83 in West 7.0 mph 18.0 mph 59 % 0.00 in
20:35 47.2 °F 34.0 °F 29.83 in West 6.0 mph 20.0 mph 60 % 0.00 in
20:40 47.1 °F 33.9 °F 29.83 in West 8.0 mph 18.0 mph 60 % 0.00 in
20:45 47.0 °F 33.8 °F 29.83 in West 6.0 mph 18.0 mph 60 % 0.00 in
20:50 46.8 °F 34.1 °F 29.83 in West 7.0 mph 15.0 mph 61 % 0.00 in
20:55 46.7 °F 33.9 °F 29.84 in West 9.0 mph 17.0 mph 61 % 0.00 in
21:00 46.4 °F 34.1 °F 29.84 in WSW 7.5 mph 16.1 mph 62 % 0.00 in
21:05 46.3 °F 34.0 °F 29.84 in West 3.0 mph 16.0 mph 62 % 0.00 in
21:10 46.2 °F 34.3 °F 29.84 in West 6.0 mph 15.0 mph 63 % 0.00 in
21:15 46.1 °F 34.2 °F 29.84 in West 8.0 mph 12.0 mph 63 % 0.00 in
21:20 46.1 °F 34.2 °F 29.84 in West 12.0 mph 22.0 mph 63 % 0.00 in
21:25 46.1 °F 34.2 °F 29.84 in West 7.0 mph 14.0 mph 63 % 0.00 in
21:30 46.0 °F 33.7 °F 29.85 in West 5.0 mph 14.0 mph 62 % 0.00 in
21:35 45.9 °F 33.6 °F 29.85 in West 10.0 mph 22.0 mph 62 % 0.00 in
21:40 45.8 °F 33.5 °F 29.85 in WNW 7.0 mph 20.0 mph 62 % 0.00 in
21:45 45.6 °F 33.3 °F 29.84 in WNW 7.0 mph 16.0 mph 62 % 0.00 in
21:50 45.5 °F 32.8 °F 29.84 in West 10.0 mph 24.0 mph 61 % 0.00 in
21:55 45.3 °F 33.0 °F 29.84 in West 7.0 mph 23.0 mph 62 % 0.00 in
22:00 45.2 °F 33.3 °F 29.84 in WNW 7.5 mph 17.3 mph 63 % 0.00 in
22:05 45.1 °F 33.6 °F 29.85 in West 10.0 mph 17.0 mph 64 % 0.00 in
22:10 45.0 °F 33.1 °F 29.85 in West 13.0 mph 22.0 mph 63 % 0.00 in
22:15 44.9 °F 33.1 °F 29.85 in West 6.0 mph 14.0 mph 63 % 0.00 in
22:20 44.8 °F 33.4 °F 29.85 in West 11.6 mph 17.0 mph 64 % 0.00 in
22:25 44.8 °F 33.4 °F 29.85 in WSW 6.9 mph 16.1 mph 64 % 0.00 in
22:30 44.7 °F 33.3 °F 29.85 in WSW 6.6 mph 13.8 mph 64 % 0.00 in
22:35 44.7 °F 33.3 °F 29.85 in WNW 8.5 mph 12.7 mph 64 % 0.00 in
22:40 44.7 °F 33.3 °F 29.85 in West 7.1 mph 15.0 mph 64 % 0.00 in
22:45 44.7 °F 33.3 °F 29.85 in West 8.5 mph 15.0 mph 64 % 0.00 in
22:50 44.7 °F 33.3 °F 29.85 in WSW 9.1 mph 16.1 mph 64 % 0.00 in
22:55 44.7 °F 32.9 °F 29.85 in West 8.2 mph 15.0 mph 63 % 0.00 in
23:01 44.8 °F 33.0 °F 29.85 in West 5.2 mph 15.0 mph 63 % 0.00 in
23:06 44.8 °F 33.0 °F 29.85 in SW 7.8 mph 15.0 mph 63 % 0.00 in
23:11 44.8 °F 32.6 °F 29.85 in WNW 4.6 mph 10.4 mph 62 % 0.00 in
23:16 44.8 °F 32.6 °F 29.86 in West 4.3 mph 19.6 mph 62 % 0.00 in
23:21 44.8 °F 33.4 °F 29.86 in NW 7.3 mph 17.3 mph 64 % 0.00 in
23:26 44.9 °F 33.5 °F 29.86 in West 4.0 mph 8.1 mph 64 % 0.00 in
23:31 44.9 °F 32.7 °F 29.86 in WSW 8.6 mph 19.6 mph 62 % 0.00 in
23:36 45.0 °F 32.8 °F 29.86 in WNW 8.5 mph 19.6 mph 62 % 0.00 in
23:41 45.0 °F 32.8 °F 29.86 in WSW 8.2 mph 19.6 mph 62 % 0.00 in
23:46 45.0 °F 32.8 °F 29.86 in WNW 7.6 mph 13.8 mph 62 % 0.00 in
23:51 45.0 °F 33.2 °F 29.86 in NW 6.1 mph 11.5 mph 63 % 0.00 in
23:57 45.0 °F 32.8 °F 29.86 in WNW 8.6 mph 15.0 mph 62 % 0.00 in
Crab Meadow Weather
Compliments of Weather Underground - 3 mb

Script developed by  Jim McMurry - jmcmurry@mwt.net Adapted for the template by  Wim van der Kuil - Leuven-Template.eu

Weather Terms: Sleet - Sleet or ice pellets are solid grains of ice formed from the freezing of rain or the refreezing of melted snow, which bounce off the ground and other objects.